Time;durP1;ratioP1;P1;durP2;ratioP2;P2;SDS_P1;SDS_P2;PMS_P1;PMS_P2;Temp;Humidity;BMP_temperature;BMP_pressure;BME280_temperature;BME280_humidity;BME280_pressure;Samples;Min_cycle;Max_cycle;Signal;HPM_P1;HPM_P2
2022/07/11 00:05:35;;;;;;;11.43;4.47;;;15.10;99.90;;;;;;4973700;28;20279;-69
2022/07/11 00:08:00;;;;;;;23.47;10.60;;;15.00;99.90;;;;;;4984571;28;20188;-69
2022/07/11 00:10:29;;;;;;;9.07;3.73;;;14.90;99.90;;;;;;4985880;28;20192;-69
2022/07/11 00:12:54;;;;;;;23.07;9.73;;;14.80;99.90;;;;;;4990524;28;20205;-70
2022/07/11 00:15:20;;;;;;;9.80;3.83;;;14.80;99.90;;;;;;4988621;28;20669;-68
2022/07/11 00:17:45;;;;;;;10.73;3.50;;;14.60;99.90;;;;;;4992882;28;20180;-69
2022/07/11 00:20:11;;;;;;;10.40;3.73;;;14.60;99.90;;;;;;4977435;28;20276;-72
2022/07/11 00:22:37;;;;;;;12.37;3.50;;;14.50;99.90;;;;;;4990877;28;20255;-69
2022/07/11 00:25:02;;;;;;;9.60;3.83;;;14.40;99.90;;;;;;4984684;28;20209;-68
2022/07/11 00:27:28;;;;;;;11.03;4.33;;;14.40;99.90;;;;;;4974670;28;20204;-70
2022/07/11 00:29:53;;;;;;;10.33;3.70;;;14.30;99.90;;;;;;4986122;28;20212;-68
2022/07/11 00:32:19;;;;;;;9.60;4.33;;;14.20;99.90;;;;;;5005118;28;20235;-69
2022/07/11 00:34:44;;;;;;;20.90;11.37;;;14.20;99.90;;;;;;4983038;28;20220;-68
2022/07/11 00:37:10;;;;;;;5.50;2.77;;;14.10;99.90;;;;;;4984163;28;20204;-66
2022/07/11 00:39:36;;;;;;;9.60;3.87;;;14.00;99.90;;;;;;4982822;28;20535;-68
2022/07/11 00:42:01;;;;;;;8.33;4.60;;;13.90;99.90;;;;;;4991717;28;20713;-70
2022/07/11 00:44:27;;;;;;;10.30;3.90;;;13.90;99.90;;;;;;4985999;28;20258;-69
2022/07/11 00:46:53;;;;;;;13.73;5.27;;;13.80;99.90;;;;;;4988683;28;20227;-69
2022/07/11 00:49:19;;;;;;;12.47;4.23;;;13.70;99.90;;;;;;4986279;28;20790;-68
2022/07/11 00:51:44;;;;;;;15.10;4.73;;;13.70;99.90;;;;;;4991305;28;20287;-72
2022/07/11 00:54:11;;;;;;;9.77;4.00;;;13.70;99.90;;;;;;4986030;28;20184;-70
2022/07/11 00:56:37;;;;;;;25.20;11.27;;;13.60;99.90;;;;;;4985300;28;20277;-70
2022/07/11 00:59:02;;;;;;;17.27;5.80;;;13.60;99.90;;;;;;4986808;28;20181;-69
2022/07/11 01:01:28;;;;;;;30.47;12.27;;;13.50;99.90;;;;;;4997977;28;20188;-68
2022/07/11 01:03:53;;;;;;;14.30;4.83;;;13.50;99.90;;;;;;4986174;28;20284;-73
2022/07/11 01:06:19;;;;;;;15.33;5.50;;;13.50;99.90;;;;;;4993953;28;20239;-68
2022/07/11 01:08:45;;;;;;;12.87;4.93;;;13.40;99.90;;;;;;4983959;28;20204;-68
2022/07/11 01:11:18;;;;;;;8.57;3.20;;;13.40;99.90;;;;;;4997172;28;20224;-68
2022/07/11 01:13:45;;;;;;;9.73;4.17;;;13.50;99.90;;;;;;4983828;28;20220;-68
2022/07/11 01:16:15;;;;;;;11.20;4.37;;;13.40;99.90;;;;;;4994703;28;20220;-68
2022/07/11 01:18:42;;;;;;;12.87;5.23;;;13.30;99.90;;;;;;4985165;28;20262;-68
2022/07/11 01:21:18;;;;;;;15.43;5.50;;;13.30;99.90;;;;;;4995057;28;20204;-68
2022/07/11 01:23:44;;;;;;;13.10;6.30;;;13.20;99.90;;;;;;4984342;28;20251;-68
2022/07/11 01:26:10;;;;;;;9.23;3.73;;;13.20;99.90;;;;;;4998214;28;20196;-69
2022/07/11 01:28:35;;;;;;;11.27;4.87;;;13.10;99.90;;;;;;4985425;28;20212;-68
2022/07/11 01:31:01;;;;;;;12.13;5.17;;;13.10;99.90;;;;;;5003218;28;20733;-69
2022/07/11 01:33:26;;;;;;;8.53;4.03;;;13.10;99.90;;;;;;4986224;28;20221;-69
2022/07/11 01:35:52;;;;;;;12.43;4.07;;;13.10;99.90;;;;;;4988567;28;20189;-69
2022/07/11 01:38:17;;;;;;;10.77;4.03;;;13.10;99.90;;;;;;4987492;28;20229;-69
2022/07/11 01:40:43;;;;;;;14.03;4.80;;;13.10;99.90;;;;;;4993365;28;20267;-69
2022/07/11 01:43:08;;;;;;;12.20;5.07;;;13.00;99.90;;;;;;4988404;28;20208;-69
2022/07/11 01:45:34;;;;;;;13.63;4.53;;;13.00;99.90;;;;;;4986893;28;20193;-69
2022/07/11 01:48:02;;;;;;;10.57;4.13;;;12.90;99.90;;;;;;4985299;28;21059;-68
2022/07/11 01:50:28;;;;;;;10.37;3.97;;;12.80;99.90;;;;;;4995080;28;20568;-69
2022/07/11 01:52:53;;;;;;;10.10;4.30;;;12.80;99.90;;;;;;4986763;28;20212;-69
2022/07/11 01:55:19;;;;;;;12.47;4.87;;;12.80;99.90;;;;;;5000209;28;20214;-69
2022/07/11 01:57:44;;;;;;;11.73;3.90;;;12.70;99.90;;;;;;4989573;28;20271;-68
2022/07/11 02:00:11;;;;;;;15.77;4.77;;;12.70;99.90;;;;;;4994655;28;20203;-67
2022/07/11 02:02:37;;;;;;;17.43;5.53;;;12.60;99.90;;;;;;4991685;28;20208;-69
2022/07/11 02:05:03;;;;;;;12.27;3.97;;;12.70;99.90;;;;;;5001071;28;20263;-68
2022/07/11 02:10:13;;;;;;;11.20;3.80;;;12.70;99.90;;;;;;4988101;28;20203;-69
2022/07/11 02:12:39;;;;;;;13.90;5.23;;;12.60;99.90;;;;;;4991561;28;20232;-68
2022/07/11 02:15:05;;;;;;;14.00;4.57;;;12.70;99.90;;;;;;4993220;28;20212;-69
2022/07/11 02:17:31;;;;;;;8.23;3.97;;;12.50;99.90;;;;;;4987909;28;20668;-69
2022/07/11 02:19:56;;;;;;;14.53;4.17;;;12.40;99.90;;;;;;4991103;28;20207;-69
2022/07/11 02:22:22;;;;;;;15.77;4.97;;;12.50;99.90;;;;;;4997747;28;20226;-67
2022/07/11 02:24:47;;;;;;;10.20;4.23;;;12.40;99.90;;;;;;4999371;28;20672;-68
2022/07/11 02:27:13;;;;;;;13.47;4.27;;;12.30;99.90;;;;;;4987573;28;20833;-69
2022/07/11 02:29:39;;;;;;;14.13;3.83;;;12.30;99.90;;;;;;4988512;28;20200;-70
2022/07/11 02:32:05;;;;;;;36.17;13.37;;;12.20;99.90;;;;;;4998921;28;20208;-69
2022/07/11 02:34:30;;;;;;;13.00;4.67;;;12.30;99.90;;;;;;4989262;28;20264;-69
2022/07/11 02:36:56;;;;;;;9.87;4.47;;;12.30;99.90;;;;;;4996692;28;20264;-69
2022/07/11 02:39:21;;;;;;;14.20;4.77;;;12.30;99.90;;;;;;4987772;28;20196;-68
2022/07/11 02:41:47;;;;;;;12.90;4.90;;;12.20;99.90;;;;;;5004363;28;20227;-71
2022/07/11 02:44:12;;;;;;;12.43;4.73;;;12.20;99.90;;;;;;5000818;28;20196;-68
2022/07/11 02:46:38;;;;;;;50.00;16.80;;;12.30;99.90;;;;;;4998330;28;20266;-70
2022/07/11 02:49:03;;;;;;;16.97;5.77;;;12.30;99.90;;;;;;4987524;28;20207;-69
2022/07/11 02:51:29;;;;;;;32.33;13.20;;;12.30;99.90;;;;;;4991567;28;20197;-67
2022/07/11 02:53:54;;;;;;;11.27;4.17;;;12.30;99.90;;;;;;4988112;28;20201;-68
2022/07/11 02:56:20;;;;;;;11.73;4.60;;;12.20;99.90;;;;;;4990593;28;20298;-69
2022/07/11 02:58:45;;;;;;;10.57;4.73;;;12.20;99.90;;;;;;5001731;28;20227;-68
2022/07/11 03:01:10;;;;;;;16.93;5.17;;;12.20;99.90;;;;;;4999806;28;20251;-68
2022/07/11 03:03:36;;;;;;;21.50;6.17;;;12.20;99.90;;;;;;4986399;28;20294;-68
2022/07/11 03:06:02;;;;;;;11.37;4.70;;;12.30;99.90;;;;;;5004517;28;20235;-69
2022/07/11 03:08:27;;;;;;;18.57;6.53;;;12.20;99.90;;;;;;4986038;28;20742;-69
2022/07/11 03:10:53;;;;;;;16.13;5.57;;;12.40;99.90;;;;;;5001464;28;20199;-69
2022/07/11 03:13:18;;;;;;;19.50;6.20;;;12.30;99.90;;;;;;4988928;28;20658;-69
2022/07/11 03:15:43;;;;;;;18.70;5.93;;;12.20;99.90;;;;;;4999709;28;20263;-68
2022/07/11 03:18:09;;;;;;;13.17;5.10;;;12.10;99.90;;;;;;4985485;28;20672;-68
2022/07/11 03:20:34;;;;;;;18.30;5.23;;;12.20;99.90;;;;;;4988010;28;20251;-69
2022/07/11 03:23:00;;;;;;;15.23;5.13;;;12.10;99.90;;;;;;4991660;28;20215;-67
2022/07/11 03:25:26;;;;;;;15.70;5.43;;;12.00;99.90;;;;;;5001503;28;20631;-67
2022/07/11 03:27:51;;;;;;;16.20;5.67;;;12.00;99.90;;;;;;4991582;28;20215;-68
2022/07/11 03:30:17;;;;;;;24.50;7.63;;;12.10;99.90;;;;;;4998188;28;20201;-69
2022/07/11 03:32:42;;;;;;;19.30;5.33;;;12.10;99.90;;;;;;5003871;28;20227;-68
2022/07/11 03:37:52;;;;;;;14.40;5.17;;;12.00;99.90;;;;;;4977959;28;20717;-67
2022/07/11 03:40:18;;;;;;;17.33;7.83;;;12.10;99.90;;;;;;4995195;28;20225;-68
2022/07/11 03:42:44;;;;;;;18.97;6.27;;;12.00;99.90;;;;;;4993546;28;20208;-86
2022/07/11 03:45:10;;;;;;;13.13;4.43;;;12.00;99.90;;;;;;5008415;28;20231;-87
2022/07/11 03:47:36;;;;;;;16.37;5.47;;;11.90;99.90;;;;;;5010354;28;20202;-86
2022/07/11 03:50:02;;;;;;;15.63;5.03;;;12.00;99.90;;;;;;4989723;28;20250;-74
2022/07/11 03:52:28;;;;;;;11.30;4.93;;;12.00;99.90;;;;;;4995029;28;20314;-76
2022/07/11 03:54:53;;;;;;;12.87;4.83;;;12.00;99.90;;;;;;4989473;28;20278;-76
2022/07/11 03:57:19;;;;;;;19.13;6.23;;;12.00;99.90;;;;;;4995663;28;20205;-74
2022/07/11 03:59:44;;;;;;;16.40;5.77;;;12.00;99.90;;;;;;4990067;28;20196;-75
2022/07/11 04:02:10;;;;;;;13.90;5.60;;;12.00;99.90;;;;;;4997095;28;20197;-76
2022/07/11 04:04:35;;;;;;;21.00;6.70;;;12.00;99.90;;;;;;4986852;28;20248;-76
2022/07/11 04:07:01;;;;;;;21.93;6.57;;;12.00;99.90;;;;;;4993765;28;20251;-76
2022/07/11 04:09:26;;;;;;;19.00;6.73;;;12.10;99.90;;;;;;4986717;28;20664;-75
2022/07/11 04:11:52;;;;;;;18.57;7.17;;;12.10;99.90;;;;;;4995165;28;20207;-74
2022/07/11 04:14:17;;;;;;;19.93;6.80;;;12.10;99.90;;;;;;4986122;28;20274;-74
2022/07/11 04:16:42;;;;;;;34.83;10.37;;;12.20;99.90;;;;;;4990763;28;20946;-75
2022/07/11 04:19:08;;;;;;;23.57;6.93;;;12.10;99.90;;;;;;4986066;28;20183;-75
2022/07/11 04:21:34;;;;;;;48.73;16.90;;;12.10;99.90;;;;;;4985429;28;20198;-74
2022/07/11 04:24:01;;;;;;;25.27;7.67;;;12.10;99.90;;;;;;4986150;28;20689;-75
2022/07/11 04:26:26;;;;;;;34.83;10.87;;;12.10;99.90;;;;;;4990533;28;20541;-76
2022/07/11 04:28:51;;;;;;;23.23;8.33;;;12.20;99.90;;;;;;4986604;28;20212;-75
2022/07/11 04:31:17;;;;;;;23.20;6.87;;;12.10;99.90;;;;;;4998064;28;20593;-71
2022/07/11 04:33:43;;;;;;;15.57;6.10;;;12.10;99.90;;;;;;4984730;28;20246;-68
2022/07/11 04:36:14;;;;;;;20.30;6.83;;;12.20;99.90;;;;;;4979562;28;20203;-71
2022/07/11 04:38:43;;;;;;;22.23;6.27;;;12.30;99.90;;;;;;4981284;28;20217;-70
2022/07/11 04:41:09;;;;;;;15.13;5.10;;;12.30;99.90;;;;;;4982234;28;20755;-70
2022/07/11 04:43:36;;;;;;;20.30;6.80;;;12.30;99.90;;;;;;4989684;28;20301;-71
2022/07/11 04:46:04;;;;;;;13.67;5.57;;;12.30;99.90;;;;;;4984541;28;20297;-71
2022/07/11 04:48:30;;;;;;;21.73;6.53;;;12.30;99.90;;;;;;4983080;28;20424;-70
2022/07/11 04:50:57;;;;;;;20.50;6.10;;;12.40;99.90;;;;;;4985807;28;20640;-71
2022/07/11 04:53:23;;;;;;;23.27;7.77;;;12.40;99.90;;;;;;4983669;28;20219;-70
2022/07/11 04:55:48;;;;;;;22.10;6.17;;;12.50;99.90;;;;;;4985729;28;20248;-69
2022/07/11 04:58:14;;;;;;;17.13;6.87;;;12.50;99.90;;;;;;4983719;28;20270;-70
2022/07/11 05:00:39;;;;;;;18.73;6.23;;;12.50;99.90;;;;;;4979200;28;20306;-70
2022/07/11 05:03:05;;;;;;;19.00;7.53;;;12.60;99.90;;;;;;4983103;28;20237;-69
2022/07/11 05:05:30;;;;;;;19.43;6.50;;;12.60;99.90;;;;;;4982883;28;20241;-70
2022/07/11 05:07:57;;;;;;;18.63;6.43;;;12.70;99.90;;;;;;4985385;28;20199;-70
2022/07/11 05:10:23;;;;;;;23.27;7.50;;;12.70;99.90;;;;;;4980938;28;20207;-70
2022/07/11 05:12:48;;;;;;;16.97;5.87;;;12.70;99.90;;;;;;4981170;28;20203;-72
2022/07/11 05:15:13;;;;;;;22.60;7.17;;;12.80;99.90;;;;;;4981656;28;20729;-72
2022/07/11 05:17:39;;;;;;;15.73;6.03;;;12.80;99.90;;;;;;4983269;28;20200;-71
2022/07/11 05:20:08;;;;;;;19.50;6.63;;;12.90;99.90;;;;;;4978114;28;20220;-70
2022/07/11 05:22:33;;;;;;;22.30;7.77;;;13.10;99.90;;;;;;4983328;28;20215;-71
2022/07/11 05:24:59;;;;;;;15.17;6.20;;;13.20;99.90;;;;;;4982004;28;20421;-71
2022/07/11 05:27:24;;;;;;;19.87;7.40;;;13.10;99.90;;;;;;4986711;28;20188;-70
2022/07/11 05:29:50;;;;;;;37.67;13.27;;;13.20;99.90;;;;;;4981673;28;20203;-71
2022/07/11 05:32:16;;;;;;;11.60;4.80;;;13.30;99.90;;;;;;4986938;28;20519;-71
2022/07/11 05:34:41;;;;;;;47.30;17.40;;;13.40;99.90;;;;;;4985403;28;20203;-69
2022/07/11 05:37:07;;;;;;;16.50;6.33;;;13.50;99.90;;;;;;4985178;28;20286;-70
2022/07/11 05:39:32;;;;;;;27.87;7.70;;;13.50;99.90;;;;;;4987704;28;20208;-71
2022/07/11 05:41:58;;;;;;;13.30;4.93;;;13.60;99.90;;;;;;4987798;28;20195;-70
2022/07/11 05:44:24;;;;;;;14.50;5.67;;;13.70;99.90;;;;;;4987542;28;20189;-69
2022/07/11 05:46:49;;;;;;;17.47;5.63;;;14.00;99.90;;;;;;4981712;28;20212;-70
2022/07/11 05:49:16;;;;;;;15.80;5.87;;;14.10;99.90;;;;;;4982112;28;20302;-69
2022/07/11 05:51:41;;;;;;;16.43;5.63;;;14.30;99.90;;;;;;4967994;28;20235;-70
2022/07/11 05:54:07;;;;;;;15.10;5.87;;;14.30;99.90;;;;;;4992941;28;20754;-70
2022/07/11 05:56:32;;;;;;;21.33;6.67;;;14.40;99.90;;;;;;4990104;28;20389;-70
2022/07/11 05:58:58;;;;;;;11.77;4.90;;;14.20;99.90;;;;;;4990025;28;20328;-69
2022/07/11 06:01:24;;;;;;;19.87;6.30;;;14.30;99.90;;;;;;4991374;28;20263;-70
2022/07/11 06:03:50;;;;;;;16.80;5.30;;;14.50;99.90;;;;;;4991893;28;20223;-70
2022/07/11 06:06:16;;;;;;;13.40;5.13;;;14.60;99.90;;;;;;4998564;28;20232;-70
2022/07/11 06:08:42;;;;;;;18.33;5.63;;;14.50;99.90;;;;;;5001221;28;20987;-70
2022/07/11 06:11:13;;;;;;;15.83;5.53;;;14.60;99.90;;;;;;4993409;28;20208;-70
2022/07/11 06:13:40;;;;;;;14.60;5.23;;;14.50;99.90;;;;;;4993596;28;20212;-69
2022/07/11 06:16:07;;;;;;;21.80;6.03;;;14.60;99.90;;;;;;5002154;28;20196;-70
2022/07/11 06:18:33;;;;;;;14.63;5.43;;;14.70;99.90;;;;;;4989449;28;20228;-70
2022/07/11 06:20:59;;;;;;;12.57;4.57;;;14.80;99.90;;;;;;4994377;28;20204;-69
2022/07/11 06:23:24;;;;;;;13.10;5.03;;;14.90;99.90;;;;;;5003306;28;20197;-70
2022/07/11 06:25:50;;;;;;;13.43;4.90;;;14.80;99.90;;;;;;4994978;28;20199;-70
2022/07/11 06:28:15;;;;;;;13.30;5.10;;;14.80;99.90;;;;;;4992231;28;20304;-70
2022/07/11 06:30:40;;;;;;;14.10;6.23;;;15.00;99.90;;;;;;4987085;28;20209;-70
2022/07/11 06:33:06;;;;;;;16.10;5.50;;;15.20;99.90;;;;;;4993381;28;20748;-70
2022/07/11 06:35:31;;;;;;;18.00;5.10;;;15.10;99.90;;;;;;4988153;28;20500;-70
2022/07/11 06:37:57;;;;;;;13.77;5.50;;;15.30;99.90;;;;;;4991092;28;20675;-69
2022/07/11 06:40:23;;;;;;;16.93;6.23;;;15.40;99.90;;;;;;4998456;28;20315;-71
2022/07/11 06:42:49;;;;;;;11.43;4.60;;;15.30;99.90;;;;;;4988916;28;20195;-70
2022/07/11 06:45:15;;;;;;;16.17;5.10;;;15.40;99.90;;;;;;4998679;28;20779;-70
2022/07/11 06:47:40;;;;;;;11.07;5.03;;;15.70;99.90;;;;;;4989061;28;20287;-70
2022/07/11 06:50:07;;;;;;;16.03;5.60;;;15.80;99.90;;;;;;4988475;28;20209;-70
2022/07/11 06:52:32;;;;;;;18.30;5.20;;;15.80;99.90;;;;;;4987863;28;20209;-70
2022/07/11 06:54:58;;;;;;;18.60;6.37;;;15.70;99.90;;;;;;4996687;28;20778;-71
2022/07/11 06:57:23;;;;;;;17.37;4.73;;;15.80;99.90;;;;;;4970935;28;20185;-73
2022/07/11 06:59:49;;;;;;;41.00;15.10;;;16.00;99.90;;;;;;5002667;28;20188;-71
2022/07/11 07:02:15;;;;;;;13.17;5.07;;;16.10;99.90;;;;;;4988423;28;20679;-72
2022/07/11 07:04:40;;;;;;;27.80;12.13;;;16.10;99.90;;;;;;4992336;28;20193;-74
2022/07/11 07:07:07;;;;;;;8.40;4.60;;;16.40;99.90;;;;;;4987964;28;20258;-74
2022/07/11 07:09:32;;;;;;;11.60;4.77;;;16.20;99.90;;;;;;4991251;28;20236;-74
2022/07/11 07:11:58;;;;;;;17.90;5.20;;;16.30;99.90;;;;;;4988031;28;20220;-74
2022/07/11 07:14:23;;;;;;;11.07;5.17;;;16.30;99.90;;;;;;4997817;28;20233;-71
2022/07/11 07:16:49;;;;;;;19.33;5.80;;;16.30;99.90;;;;;;4986212;28;21014;-73
2022/07/11 07:19:14;;;;;;;33.80;6.67;;;16.40;99.90;;;;;;4997058;28;20683;-68
2022/07/11 07:21:40;;;;;;;12.53;4.17;;;16.30;99.90;;;;;;4955643;28;20204;-68
2022/07/11 07:24:06;;;;;;;21.50;5.50;;;16.40;99.90;;;;;;4995702;28;20200;-69
2022/07/11 07:26:32;;;;;;;19.47;6.43;;;16.40;99.90;;;;;;4989115;28;20231;-69
2022/07/11 07:28:58;;;;;;;13.60;5.03;;;16.50;99.90;;;;;;4989433;28;20201;-66
2022/07/11 07:31:24;;;;;;;17.90;5.37;;;16.50;99.90;;;;;;4989245;28;20219;-67
2022/07/11 07:33:50;;;;;;;12.87;5.03;;;16.50;99.90;;;;;;4994625;28;20216;-68
2022/07/11 07:36:16;;;;;;;11.77;4.70;;;16.50;99.90;;;;;;4989247;28;20200;-67
2022/07/11 07:38:43;;;;;;;16.03;6.30;;;16.40;99.90;;;;;;4987272;28;20201;-67
2022/07/11 07:41:14;;;;;;;13.73;4.77;;;16.60;99.90;;;;;;4991670;28;20208;-67
2022/07/11 07:43:41;;;;;;;9.57;4.10;;;16.70;99.90;;;;;;4974580;28;20647;-67
2022/07/11 07:46:10;;;;;;;9.37;4.63;;;16.80;99.90;;;;;;4991684;28;20292;-68
2022/07/11 07:48:37;;;;;;;11.70;5.43;;;16.80;99.90;;;;;;4988164;28;20223;-68
2022/07/11 07:51:03;;;;;;;10.83;4.93;;;17.00;99.90;;;;;;4984317;28;20215;-66
2022/07/11 07:53:29;;;;;;;11.27;4.67;;;17.20;99.90;;;;;;4996435;28;20217;-67
2022/07/11 07:55:54;;;;;;;9.03;4.40;;;17.20;99.90;;;;;;4987531;28;20211;-67
2022/07/11 07:58:20;;;;;;;14.67;4.97;;;17.40;99.90;;;;;;4993818;28;20852;-67
2022/07/11 08:03:30;;;;;;;7.30;3.83;;;17.30;99.90;;;;;;4979669;28;20195;-68
2022/07/11 08:05:56;;;;;;;17.40;5.67;;;17.00;99.90;;;;;;4999595;28;20228;-68
2022/07/11 08:08:21;;;;;;;13.43;4.50;;;17.10;99.90;;;;;;4993583;28;20189;-67
2022/07/11 08:10:47;;;;;;;8.97;3.10;;;17.20;99.90;;;;;;4988327;28;21142;-67
2022/07/11 08:13:12;;;;;;;11.80;4.00;;;17.40;99.90;;;;;;5002212;28;20295;-67
2022/07/11 08:15:38;;;;;;;15.67;4.70;;;17.60;99.90;;;;;;4992998;28;20205;-67
2022/07/11 08:18:03;;;;;;;14.27;5.80;;;17.70;99.90;;;;;;4991471;28;20189;-67
2022/07/11 08:20:29;;;;;;;11.70;4.30;;;17.70;99.90;;;;;;4986143;28;20744;-67
2022/07/11 08:23:02;;;;;;;12.47;4.60;;;17.80;99.90;;;;;;4992718;28;20698;-68
2022/07/11 08:25:27;;;;;;;12.83;4.43;;;17.80;99.90;;;;;;4996259;28;20212;-67
2022/07/11 08:27:53;;;;;;;9.87;4.27;;;17.90;99.90;;;;;;4989073;28;20668;-67
2022/07/11 08:30:22;;;;;;;13.87;5.50;;;18.00;99.90;;;;;;4995770;28;20759;-67
2022/07/11 08:32:47;;;;;;;16.27;4.90;;;18.20;99.90;;;;;;4986571;28;20213;-66
2022/07/11 08:35:15;;;;;;;9.53;4.70;;;18.30;99.90;;;;;;4988407;28;20578;-67
2022/07/11 08:37:41;;;;;;;9.17;4.43;;;18.40;99.90;;;;;;4986167;28;20612;-67
2022/07/11 08:40:07;;;;;;;12.30;5.03;;;18.40;99.90;;;;;;4985231;28;20202;-68
2022/07/11 08:42:39;;;;;;;10.23;4.40;;;18.40;99.90;;;;;;4986022;28;20761;-67
2022/07/11 08:45:05;;;;;;;14.30;4.60;;;18.50;99.90;;;;;;4978905;28;20205;-68
2022/07/11 08:47:32;;;;;;;12.53;5.07;;;18.50;99.90;;;;;;4986585;28;20301;-68
2022/07/11 08:49:59;;;;;;;15.87;5.30;;;18.50;99.90;;;;;;4990685;28;20209;-68
2022/07/11 08:52:24;;;;;;;13.40;4.97;;;18.80;99.90;;;;;;4986021;28;20213;-68
2022/07/11 08:54:51;;;;;;;36.17;13.77;;;19.00;99.90;;;;;;4990186;28;20844;-68
2022/07/11 08:57:18;;;;;;;10.87;4.73;;;19.10;99.90;;;;;;4986246;28;20248;-68
2022/07/11 08:59:47;;;;;;;26.33;12.83;;;19.10;99.90;;;;;;4982409;28;20197;-67
2022/07/11 09:02:13;;;;;;;12.30;4.73;;;19.60;99.90;;;;;;4985804;28;20185;-68
2022/07/11 09:04:38;;;;;;;17.63;9.73;;;19.40;99.90;;;;;;4984368;28;20219;-72
2022/07/11 09:07:04;;;;;;;13.53;5.50;;;19.30;99.90;;;;;;4995797;28;20737;-69
2022/07/11 09:09:30;;;;;;;8.70;4.43;;;19.50;99.90;;;;;;4991287;28;20276;-68
2022/07/11 09:11:57;;;;;;;14.47;6.23;;;19.50;99.90;;;;;;4984312;28;20197;-68
2022/07/11 09:14:25;;;;;;;10.87;5.03;;;19.70;99.90;;;;;;5000212;28;20214;-68
2022/07/11 09:16:55;;;;;;;14.33;4.70;;;19.70;99.90;;;;;;4984649;28;20201;-68
2022/07/11 09:19:23;;;;;;;9.33;3.90;;;19.60;99.90;;;;;;4993060;28;20312;-68
2022/07/11 09:27:54;;;;;;;6.47;3.43;;;20.10;99.90;;;;;;4986014;28;20669;-67
2022/07/11 09:30:31;;;;;;;10.50;4.03;;;20.10;99.80;;;;;;4971212;28;20206;-68
2022/07/11 09:33:00;;;;;;;8.83;3.40;;;20.10;99.90;;;;;;4986157;28;20607;-68
2022/07/11 09:35:28;;;;;;;8.90;3.70;;;19.90;99.20;;;;;;4990378;28;20719;-69
2022/07/11 09:37:54;;;;;;;9.07;4.00;;;20.30;98.70;;;;;;4985436;28;20186;-68
2022/07/11 09:40:21;;;;;;;8.27;3.30;;;20.50;98.60;;;;;;4992172;28;20202;-69
2022/07/11 09:42:52;;;;;;;9.70;3.13;;;20.10;98.90;;;;;;4985996;28;20201;-68
2022/07/11 09:45:19;;;;;;;8.60;3.37;;;19.70;98.90;;;;;;4987242;28;20210;-68
2022/07/11 09:47:46;;;;;;;8.07;3.10;;;19.80;98.20;;;;;;4985980;28;20212;-68
2022/07/11 09:50:15;;;;;;;8.50;3.30;;;20.30;98.30;;;;;;4996028;28;20296;-68
2022/07/11 09:52:43;;;;;;;7.80;3.20;;;20.40;98.20;;;;;;4985637;28;20261;-68
2022/07/11 09:55:09;;;;;;;9.90;4.20;;;20.50;98.40;;;;;;4984357;28;20195;-67
2022/07/11 09:57:36;;;;;;;15.30;4.43;;;20.10;98.60;;;;;;4985655;28;20196;-67
2022/07/11 10:00:11;;;;;;;7.47;4.37;;;20.20;98.40;;;;;;4988899;28;20280;-67
2022/07/11 10:02:37;;;;;;;8.07;3.93;;;20.20;98.30;;;;;;4981642;28;20210;-68
2022/07/11 10:05:04;;;;;;;7.70;3.97;;;20.50;97.70;;;;;;4986780;28;20284;-69
2022/07/11 10:07:30;;;;;;;11.50;4.17;;;20.90;97.20;;;;;;4985006;28;20206;-70
2022/07/11 10:09:57;;;;;;;8.10;3.97;;;21.20;97.80;;;;;;4987213;28;20362;-81
2022/07/11 10:12:24;;;;;;;7.23;3.47;;;21.30;95.70;;;;;;4992876;28;20217;-83
2022/07/11 10:14:50;;;;;;;5.67;2.83;;;21.80;94.40;;;;;;4992184;28;20189;-81
2022/07/11 10:17:27;;;;;;;8.20;3.27;;;21.60;93.80;;;;;;4999022;28;20199;-79
2022/07/11 10:20:06;;;;;;;7.27;2.70;;;21.40;95.30;;;;;;4987161;28;20470;-80
2022/07/11 10:23:00;;;;;;;5.70;3.40;;;21.40;95.80;;;;;;4996122;28;20206;-82
2022/07/11 10:25:47;;;;;;;6.43;2.93;;;21.70;93.90;;;;;;5001457;28;20913;-82
2022/07/11 10:28:44;;;;;;;7.53;3.83;;;21.30;92.90;;;;;;4985803;28;20574;-78
2022/07/11 10:31:23;;;;;;;12.40;6.27;;;21.20;91.60;;;;;;4979603;28;20221;-84
2022/07/11 10:34:10;;;;;;;5.50;2.97;;;21.40;91.60;;;;;;4990086;28;20254;-81
2022/07/11 10:36:43;;;;;;;5.93;3.27;;;21.30;91.90;;;;;;4985028;28;20302;-77
2022/07/11 10:39:14;;;;;;;5.80;3.43;;;21.30;92.40;;;;;;4989602;28;20180;-79
2022/07/11 10:41:40;;;;;;;7.13;3.00;;;21.80;92.30;;;;;;5001987;28;20220;-84
2022/07/11 10:44:06;;;;;;;4.07;2.37;;;22.10;91.50;;;;;;4990656;28;20193;-81
2022/07/11 10:46:34;;;;;;;3.07;1.40;;;22.00;90.10;;;;;;4997546;28;20228;-89
2022/07/11 10:49:16;;;;;;;4.77;2.67;;;22.00;90.40;;;;;;5002857;28;20308;-83
2022/07/11 10:51:44;;;;;;;5.07;3.03;;;22.30;90.00;;;;;;4990670;28;20260;-80
2022/07/11 10:54:30;;;;;;;7.60;3.43;;;22.00;90.00;;;;;;4989311;28;20326;-80
2022/07/11 10:57:22;;;;;;;4.90;2.30;;;21.80;90.60;;;;;;4988818;28;20189;-80
2022/07/11 11:00:05;;;;;;;3.63;2.70;;;21.90;89.40;;;;;;4982943;28;20215;-80
2022/07/11 11:03:04;;;;;;;7.87;3.57;;;22.10;87.90;;;;;;4991802;28;20722;-81
2022/07/11 11:05:54;;;;;;;5.70;2.40;;;22.20;85.70;;;;;;4982990;28;20230;-84
2022/07/11 11:08:32;;;;;;;7.60;3.57;;;22.70;84.30;;;;;;4989798;28;20205;-81
2022/07/11 11:10:59;;;;;;;6.27;2.27;;;23.20;84.10;;;;;;4994336;28;20189;-84
2022/07/11 11:13:25;;;;;;;5.93;2.23;;;23.50;87.20;;;;;;4990715;28;20935;-79
2022/07/11 11:15:58;;;;;;;7.32;3.13;;;23.60;82.10;;;;;;5003801;28;20196;-86
2022/07/11 11:18:24;;;;;;;7.17;3.00;;;22.80;81.10;;;;;;4971917;28;20287;-80
2022/07/11 11:20:59;;;;;;;5.50;2.73;;;22.30;82.10;;;;;;4990406;28;20284;-81
2022/07/11 11:23:27;;;;;;;6.25;3.13;;;22.70;81.20;;;;;;4988009;28;20656;-82
2022/07/11 11:25:52;;;;;;;7.03;3.47;;;24.20;76.10;;;;;;4987428;28;20303;-78
2022/07/11 11:28:22;;;;;;;10.48;4.03;;;24.70;74.20;;;;;;4987840;28;20782;-77
2022/07/11 11:30:57;;;;;;;6.20;3.05;;;26.30;70.40;;;;;;4988914;28;20225;-77
2022/07/11 11:33:28;;;;;;;7.40;3.42;;;26.20;70.00;;;;;;4988033;28;20214;-78
2022/07/11 11:36:15;;;;;;;5.43;2.95;;;24.80;70.90;;;;;;4990036;28;20217;-78
2022/07/11 11:38:41;;;;;;;6.40;3.60;;;23.20;72.40;;;;;;4988528;28;20196;-78
2022/07/11 11:41:07;;;;;;;5.47;3.35;;;23.80;71.00;;;;;;4987161;28;20190;-76
2022/07/11 11:43:34;;;;;;;6.78;3.03;;;24.10;71.00;;;;;;4986757;28;20944;-77
2022/07/11 11:46:01;;;;;;;6.35;3.03;;;24.70;68.90;;;;;;4988572;28;20661;-76
2022/07/11 11:48:35;;;;;;;5.07;3.10;;;24.40;65.70;;;;;;4984895;28;20213;-77
2022/07/11 11:51:08;;;;;;;6.00;3.40;;;23.40;65.80;;;;;;4988408;28;20255;-79
2022/07/11 11:53:51;;;;;;;8.38;3.97;;;23.20;67.30;;;;;;4987233;28;20263;-82
2022/07/11 11:56:21;;;;;;;22.90;9.13;;;25.10;65.50;;;;;;4992894;28;20304;-83
2022/07/11 11:58:48;;;;;;;9.63;4.47;;;26.20;62.10;;;;;;4992975;28;20167;-87
2022/07/11 12:01:19;;;;;;;18.15;8.20;;;25.60;64.00;;;;;;5004938;28;20611;-86
2022/07/11 12:04:08;;;;;;;9.05;3.67;;;25.60;66.00;;;;;;4991169;28;20183;-81
2022/07/11 12:06:40;;;;;;;10.55;4.45;;;25.70;65.00;;;;;;4984007;28;20236;-83
2022/07/11 12:09:11;;;;;;;12.05;4.25;;;25.40;65.90;;;;;;4987030;28;20204;-83
2022/07/11 12:11:38;;;;;;;11.52;4.70;;;25.00;67.00;;;;;;4983406;28;20211;-81
2022/07/11 12:14:06;;;;;;;5.13;2.55;;;24.70;67.00;;;;;;4972443;28;20691;-88
2022/07/11 12:16:43;;;;;;;7.03;3.03;;;25.50;65.00;;;;;;4988787;28;20196;-82
2022/07/11 12:19:21;;;;;;;9.65;4.38;;;25.30;62.90;;;;;;4970352;28;20280;-78
2022/07/11 12:21:49;;;;;;;12.38;5.13;;;25.20;62.20;;;;;;4985577;28;20260;-80
2022/07/11 12:24:21;;;;;;;7.93;3.70;;;24.70;60.60;;;;;;4986685;28;20240;-80
2022/07/11 12:26:47;;;;;;;8.98;3.83;;;25.30;63.10;;;;;;4996591;28;20207;-80
2022/07/11 12:29:22;;;;;;;8.88;4.13;;;26.30;58.40;;;;;;4987275;28;20188;-78
2022/07/11 12:31:49;;;;;;;12.48;5.32;;;25.60;60.60;;;;;;4980024;28;20200;-81
2022/07/11 12:34:17;;;;;;;8.38;3.53;;;25.70;60.30;;;;;;4986656;28;20208;-80
2022/07/11 12:36:43;;;;;;;9.23;4.60;;;25.50;61.40;;;;;;4983543;28;20320;-78
2022/07/11 12:39:09;;;;;;;11.27;4.57;;;25.30;61.60;;;;;;4998049;28;20829;-79
2022/07/11 12:41:35;;;;;;;15.88;6.43;;;25.50;60.40;;;;;;4985637;28;20473;-78
2022/07/11 12:46:47;;;;;;;7.30;3.63;;;26.40;58.40;;;;;;4984087;28;20269;-78
2022/07/11 12:49:13;;;;;;;8.13;3.40;;;26.20;60.10;;;;;;4985366;28;20223;-79
2022/07/11 12:51:41;;;;;;;10.50;4.70;;;26.70;60.40;;;;;;4984541;28;20294;-77
2022/07/11 12:54:09;;;;;;;12.10;4.68;;;26.80;59.70;;;;;;4995145;28;20215;-79
2022/07/11 12:56:36;;;;;;;9.10;4.20;;;26.10;58.80;;;;;;4970411;28;20235;-79
2022/07/11 12:59:03;;;;;;;9.63;4.93;;;26.10;58.90;;;;;;4987036;28;20199;-79
2022/07/11 13:01:30;;;;;;;45.70;40.53;;;26.00;58.80;;;;;;4993849;28;20667;-79